createdAt,value
2017-08-18T00:00:11.805Z,19.13
2017-08-18T00:01:11.805Z,19.16
2017-08-18T00:03:06.253Z,19.06
2017-08-18T00:04:06.293Z,19.21
2017-08-18T00:05:59.797Z,19.10
2017-08-18T00:06:59.806Z,19.07
2017-08-18T00:08:53.261Z,19.08
2017-08-18T00:09:53.309Z,19.11
2017-08-18T00:11:46.813Z,18.98
2017-08-18T00:12:46.846Z,18.99
2017-08-18T00:14:41.292Z,18.94
2017-08-18T00:15:41.301Z,18.98
2017-08-18T00:17:37.326Z,19.04
2017-08-18T00:18:37.349Z,18.99
2017-08-18T00:20:31.765Z,18.92
2017-08-18T00:21:31.870Z,18.99
2017-08-18T00:23:26.285Z,18.88
2017-08-18T00:24:26.301Z,18.84
2017-08-18T00:26:20.774Z,18.81
2017-08-18T00:27:20.846Z,18.80
2017-08-18T00:29:15.270Z,18.76
2017-08-18T00:30:15.318Z,18.90
2017-08-18T00:32:09.750Z,18.80
2017-08-18T00:33:09.782Z,18.78
2017-08-18T00:35:04.262Z,18.85
2017-08-18T00:36:04.286Z,18.76
2017-08-18T00:37:57.750Z,18.82
2017-08-18T00:38:57.798Z,18.75
2017-08-18T00:40:51.286Z,18.90
2017-08-18T00:41:51.335Z,18.78
2017-08-18T00:43:47.254Z,18.81
2017-08-18T00:44:47.286Z,18.82
2017-08-18T00:46:41.822Z,18.72
2017-08-18T00:47:41.807Z,18.78
2017-08-18T00:49:35.279Z,18.81
2017-08-18T00:50:35.295Z,18.84
2017-08-18T00:52:29.775Z,18.81
2017-08-18T00:53:29.791Z,18.84
2017-08-18T00:55:24.295Z,18.82
2017-08-18T00:56:24.303Z,18.84
2017-08-18T00:58:18.767Z,18.81
2017-08-18T00:59:18.791Z,18.87
2017-08-18T01:01:13.279Z,18.76
2017-08-18T01:02:13.279Z,18.78
2017-08-18T01:04:07.776Z,18.73
2017-08-18T01:05:07.912Z,18.69
2017-08-18T01:07:01.255Z,18.85
2017-08-18T01:08:01.288Z,18.72
2017-08-18T01:09:55.799Z,18.85
2017-08-18T01:10:55.808Z,18.81
2017-08-18T01:12:49.288Z,18.81
2017-08-18T01:13:49.296Z,18.88
2017-08-18T01:15:43.752Z,18.82
2017-08-18T01:16:43.792Z,18.72
2017-08-18T01:18:38.296Z,18.75
2017-08-18T01:19:38.288Z,18.72
2017-08-18T01:21:32.776Z,18.62
2017-08-18T01:22:32.776Z,18.62
2017-08-18T01:24:28.233Z,18.72
2017-08-18T01:25:28.272Z,18.73
2017-08-18T01:27:22.802Z,18.72
2017-08-18T01:28:22.818Z,18.76
2017-08-18T01:30:17.226Z,18.80
2017-08-18T01:31:17.363Z,18.65
2017-08-18T01:33:11.771Z,18.70
2017-08-18T01:34:11.776Z,18.73
2017-08-18T01:36:06.235Z,18.63
2017-08-18T01:37:06.275Z,18.75
2017-08-18T01:39:00.746Z,18.63
2017-08-18T01:40:00.771Z,18.66
2017-08-18T01:41:55.275Z,18.65
2017-08-18T01:42:55.291Z,18.62
2017-08-18T01:44:49.763Z,18.65
2017-08-18T01:45:49.763Z,18.70
2017-08-18T01:47:44.243Z,18.60
2017-08-18T01:48:44.259Z,18.63
2017-08-18T01:50:38.740Z,18.52
2017-08-18T01:51:38.827Z,18.51
2017-08-18T01:53:33.226Z,18.51
2017-08-18T01:54:33.267Z,18.54
2017-08-18T01:56:27.731Z,18.54
2017-08-18T01:57:27.756Z,18.55
2017-08-18T01:59:22.227Z,18.60
2017-08-18T02:00:22.252Z,18.45
2017-08-18T02:02:16.779Z,18.54
2017-08-18T02:03:16.771Z,18.52
2017-08-18T02:05:11.235Z,18.50
2017-08-18T02:06:11.260Z,18.48
2017-08-18T02:08:05.748Z,18.63
2017-08-18T02:09:05.764Z,18.55
2017-08-18T02:10:59.196Z,18.57
2017-08-18T02:11:59.236Z,18.50
2017-08-18T02:13:53.732Z,18.60
2017-08-18T02:14:53.764Z,18.51
2017-08-18T02:16:48.204Z,18.55
2017-08-18T02:17:48.236Z,18.55
2017-08-18T02:19:42.725Z,18.50
2017-08-18T02:20:42.748Z,18.60
2017-08-18T02:22:37.237Z,18.58
2017-08-18T02:23:37.245Z,18.62
2017-08-18T02:25:31.724Z,18.66
2017-08-18T02:26:31.733Z,18.63
2017-08-18T02:28:26.213Z,18.63
2017-08-18T02:29:26.245Z,18.66
2017-08-18T02:31:20.725Z,18.67
2017-08-18T02:32:20.742Z,18.55
2017-08-18T02:34:15.197Z,18.54
2017-08-18T02:35:15.286Z,18.48
2017-08-18T02:37:09.758Z,18.48
2017-08-18T02:38:09.761Z,18.50
2017-08-18T02:40:04.229Z,18.48
2017-08-18T02:41:04.245Z,18.47
2017-08-18T02:42:58.751Z,18.55
2017-08-18T02:43:58.781Z,18.45
2017-08-18T02:45:53.198Z,18.57
2017-08-18T02:46:53.253Z,18.47
2017-08-18T02:48:47.718Z,18.47
2017-08-18T02:49:47.758Z,18.52
2017-08-18T02:51:42.262Z,18.52
2017-08-18T02:52:42.238Z,18.50
2017-08-18T02:54:36.702Z,18.41
2017-08-18T02:55:36.774Z,18.55
2017-08-18T02:57:31.230Z,18.52
2017-08-18T02:58:31.246Z,18.55
2017-08-18T03:00:25.711Z,18.60
2017-08-18T03:01:25.734Z,18.55
2017-08-18T03:03:20.262Z,18.62
2017-08-18T03:04:20.246Z,18.54
2017-08-18T03:06:14.694Z,18.57
2017-08-18T03:07:14.743Z,18.55
2017-08-18T03:09:09.215Z,18.55
2017-08-18T03:10:09.239Z,18.57
2017-08-18T03:12:03.791Z,18.57
2017-08-18T03:13:03.742Z,18.62
2017-08-18T03:14:58.191Z,18.37
2017-08-18T03:15:58.232Z,18.44
2017-08-18T03:17:52.735Z,18.18
2017-08-18T03:18:52.727Z,18.35
2017-08-18T03:20:47.199Z,18.32
2017-08-18T03:21:47.240Z,18.21
2017-08-18T03:23:41.760Z,18.21
2017-08-18T03:24:41.743Z,18.21
2017-08-18T03:26:36.199Z,18.35
2017-08-18T03:27:36.256Z,18.30
2017-08-18T03:29:30.712Z,18.29
2017-08-18T03:30:30.744Z,18.30
2017-08-18T03:32:25.239Z,18.35
2017-08-18T03:33:25.248Z,18.17
2017-08-18T03:35:19.695Z,18.30
2017-08-18T03:36:19.768Z,18.29
2017-08-18T03:38:14.232Z,18.29
2017-08-18T03:39:14.272Z,18.32
2017-08-18T03:41:08.736Z,18.33
2017-08-18T03:42:08.744Z,18.33
2017-08-18T03:44:03.241Z,18.23
2017-08-18T03:45:03.404Z,18.21
2017-08-18T03:46:57.704Z,18.15
2017-08-18T03:47:57.728Z,18.20
2017-08-18T03:49:52.216Z,18.25
2017-08-18T03:50:52.288Z,18.32
2017-08-18T03:52:46.681Z,18.27
2017-08-18T03:53:46.728Z,18.20
2017-08-18T03:55:41.209Z,18.23
2017-08-18T03:56:41.217Z,18.23
2017-08-18T03:58:35.704Z,18.20
2017-08-18T03:59:35.801Z,18.17
2017-08-18T04:01:30.193Z,18.21
2017-08-18T04:02:30.219Z,18.17
2017-08-18T04:04:24.721Z,18.30
2017-08-18T04:05:24.729Z,18.30
2017-08-18T04:07:19.171Z,18.23
2017-08-18T04:08:19.209Z,18.27
2017-08-18T04:10:13.697Z,18.33
2017-08-18T04:11:13.721Z,18.29
2017-08-18T04:13:08.161Z,18.33
2017-08-18T04:14:08.225Z,18.35
2017-08-18T04:16:02.769Z,18.26
2017-08-18T04:17:02.826Z,18.29
2017-08-18T04:18:57.258Z,18.18
2017-08-18T04:19:57.305Z,18.32
2017-08-18T04:21:51.761Z,18.26
2017-08-18T04:22:51.777Z,18.45
2017-08-18T04:24:46.242Z,18.45
2017-08-18T04:25:46.290Z,18.39
2017-08-18T04:27:42.258Z,18.45
2017-08-18T04:28:42.274Z,18.42
2017-08-18T04:30:36.730Z,18.42
2017-08-18T04:31:36.786Z,18.42
2017-08-18T04:33:31.250Z,18.33
2017-08-18T04:34:31.266Z,18.41
2017-08-18T04:36:25.738Z,18.44
2017-08-18T04:37:25.785Z,18.30
2017-08-18T04:39:20.274Z,18.39
2017-08-18T04:40:20.307Z,18.44
2017-08-18T04:42:14.832Z,18.36
2017-08-18T04:43:14.840Z,18.42
2017-08-18T04:45:09.264Z,18.37
2017-08-18T04:46:09.313Z,18.63
2017-08-18T04:48:03.792Z,18.37
2017-08-18T04:49:03.832Z,18.42
2017-08-18T04:50:58.249Z,18.48
2017-08-18T04:51:58.338Z,18.44
2017-08-18T04:53:52.768Z,18.52
2017-08-18T04:54:52.849Z,18.58
2017-08-18T04:56:47.268Z,18.51
2017-08-18T04:57:47.361Z,18.55
2017-08-18T04:59:41.737Z,18.60
2017-08-18T05:00:41.777Z,18.50
2017-08-18T05:02:36.277Z,18.67
2017-08-18T05:03:36.289Z,18.52
2017-08-18T05:05:30.809Z,18.65
2017-08-18T05:06:30.818Z,18.66
2017-08-18T05:08:25.330Z,18.58
2017-08-18T05:09:25.314Z,18.63
2017-08-18T05:11:19.753Z,18.65
2017-08-18T05:12:19.818Z,18.48
2017-08-18T05:14:14.305Z,18.58
2017-08-18T05:15:14.321Z,18.58
2017-08-18T05:17:07.769Z,18.65
2017-08-18T05:18:07.962Z,18.78
2017-08-18T05:20:02.370Z,18.58
2017-08-18T05:21:02.612Z,18.76
2017-08-18T05:22:56.034Z,18.72
2017-08-18T05:23:55.714Z,18.76
2017-08-18T05:25:49.098Z,18.81
2017-08-18T05:26:49.162Z,18.84
2017-08-18T05:28:43.802Z,18.85
2017-08-18T05:29:43.675Z,18.76
2017-08-18T05:31:38.210Z,18.82
2017-08-18T05:32:38.155Z,18.90
2017-08-18T05:34:32.586Z,18.85
2017-08-18T05:35:32.626Z,18.82
2017-08-18T05:37:27.115Z,18.85
2017-08-18T05:38:27.139Z,18.82
2017-08-18T05:40:21.595Z,18.85
2017-08-18T05:41:21.635Z,18.81
2017-08-18T05:43:16.106Z,18.81
2017-08-18T05:44:16.123Z,18.95
2017-08-18T05:46:10.579Z,18.82
2017-08-18T05:47:10.635Z,18.84
2017-08-18T05:49:05.092Z,18.82
2017-08-18T05:50:05.107Z,18.82
2017-08-18T05:51:59.563Z,18.99
2017-08-18T05:52:59.603Z,18.95
2017-08-18T05:54:54.091Z,18.90
2017-08-18T05:55:54.099Z,18.91
2017-08-18T05:57:48.595Z,19.02
2017-08-18T05:58:48.604Z,19.08
2017-08-18T06:00:43.068Z,19.04
2017-08-18T06:01:43.203Z,19.10
2017-08-18T06:03:37.596Z,19.07
2017-08-18T06:04:37.604Z,19.10
2017-08-18T06:06:31.075Z,19.19
2017-08-18T06:07:31.134Z,19.13
2017-08-18T06:09:25.580Z,19.26
2017-08-18T06:10:25.644Z,19.22
2017-08-18T06:12:20.060Z,19.25
2017-08-18T06:13:20.108Z,19.14
2017-08-18T06:15:13.653Z,19.28
2017-08-18T06:16:13.644Z,19.39
2017-08-18T06:18:08.097Z,19.40
2017-08-18T06:19:08.108Z,19.28
2017-08-18T06:21:02.605Z,19.36
2017-08-18T06:22:02.629Z,19.39
2017-08-18T06:23:57.132Z,19.46
2017-08-18T06:24:57.133Z,19.39
2017-08-18T06:26:51.589Z,19.50
2017-08-18T06:27:51.613Z,19.39
2017-08-18T06:29:47.573Z,19.55
2017-08-18T06:30:47.677Z,19.56
2017-08-18T06:32:42.093Z,19.56
2017-08-18T06:33:42.127Z,19.56
2017-08-18T06:35:35.597Z,19.76
2017-08-18T06:36:35.599Z,19.76
2017-08-18T06:38:29.133Z,19.73
2017-08-18T06:39:29.173Z,19.71
2017-08-18T06:41:23.614Z,19.86
2017-08-18T06:42:23.645Z,19.94
2017-08-18T06:44:18.062Z,19.91
2017-08-18T06:45:18.102Z,20.03
2017-08-18T06:47:11.592Z,20.14
2017-08-18T06:48:11.606Z,20.05
2017-08-18T06:50:05.094Z,20.02
2017-08-18T06:51:05.127Z,19.99
2017-08-18T06:52:59.662Z,20.17
2017-08-18T06:53:59.647Z,20.08
2017-08-18T06:55:55.614Z,20.16
2017-08-18T06:56:55.606Z,20.20
2017-08-18T06:58:50.126Z,20.17
2017-08-18T06:59:50.166Z,20.06
2017-08-18T07:01:44.607Z,20.06
2017-08-18T07:02:44.625Z,19.91
2017-08-18T07:04:40.719Z,20.06
2017-08-18T07:05:40.606Z,20.01
2017-08-18T07:07:35.070Z,19.91
2017-08-18T07:08:35.119Z,19.96
2017-08-18T07:10:28.622Z,20.06
2017-08-18T07:11:28.703Z,20.05
2017-08-18T07:13:22.527Z,20.16
2017-08-18T07:14:22.159Z,20.18
2017-08-18T07:16:16.583Z,20.16
2017-08-18T07:17:16.647Z,20.18
2017-08-18T07:19:11.111Z,20.26
2017-08-18T07:20:11.134Z,20.23
2017-08-18T07:22:04.623Z,20.28
2017-08-18T07:23:04.711Z,20.24
2017-08-18T07:24:58.143Z,20.26
2017-08-18T07:25:58.143Z,20.21
2017-08-18T07:27:52.615Z,20.20
2017-08-18T07:28:52.648Z,20.17
2017-08-18T07:30:47.127Z,20.13
2017-08-18T07:31:55.792Z,20.11
2017-08-18T07:33:41.639Z,20.06
2017-08-18T07:34:41.648Z,20.03
2017-08-18T07:36:36.120Z,20.13
2017-08-18T07:37:36.168Z,20.05
2017-08-18T07:39:30.592Z,20.05
2017-08-18T07:40:30.680Z,19.98
2017-08-18T07:42:25.136Z,19.99
2017-08-18T07:43:25.168Z,19.98
2017-08-18T07:45:21.136Z,20.03
2017-08-18T07:46:21.152Z,19.98
2017-08-18T07:48:15.656Z,20.10
2017-08-18T07:49:15.664Z,20.16
2017-08-18T07:51:10.120Z,20.18
2017-08-18T07:52:10.153Z,20.14
2017-08-18T07:54:04.689Z,20.26
2017-08-18T07:55:04.689Z,20.24
2017-08-18T07:56:59.181Z,20.24
2017-08-18T07:57:59.169Z,20.23
2017-08-18T07:59:53.624Z,20.38
2017-08-18T08:00:53.673Z,20.32
2017-08-18T08:02:49.673Z,20.51
2017-08-18T08:03:49.689Z,20.35
2017-08-18T08:05:45.657Z,20.35
2017-08-18T08:06:45.690Z,20.21
2017-08-18T08:08:40.216Z,20.39
2017-08-18T08:09:40.188Z,20.47
2017-08-18T08:11:34.641Z,20.20
2017-08-18T08:12:34.713Z,20.31
2017-08-18T08:14:29.160Z,20.24
2017-08-18T08:15:29.201Z,20.47
2017-08-18T08:17:23.706Z,20.73
2017-08-18T08:18:23.769Z,20.72
2017-08-18T08:20:18.185Z,20.91
2017-08-18T08:21:18.193Z,20.91
2017-08-18T08:23:12.657Z,21.03
2017-08-18T08:24:12.746Z,21.10
2017-08-18T08:26:07.178Z,21.14
2017-08-18T08:27:07.274Z,21.21
2017-08-18T08:29:01.682Z,21.44
2017-08-18T08:30:01.714Z,21.52
2017-08-18T08:31:58.570Z,21.52
2017-08-18T08:32:58.626Z,21.59
2017-08-18T08:34:53.034Z,21.69
2017-08-18T08:35:53.066Z,21.71
2017-08-18T08:37:47.578Z,21.79
2017-08-18T08:38:47.594Z,21.86
2017-08-18T08:40:41.034Z,21.83
2017-08-18T08:41:41.082Z,21.74
2017-08-18T08:43:35.578Z,21.82
2017-08-18T08:44:35.660Z,22.12
2017-08-18T08:46:30.082Z,22.31
2017-08-18T08:47:30.098Z,22.35
2017-08-18T08:49:24.546Z,22.51
2017-08-18T08:50:24.602Z,22.40
2017-08-18T08:52:20.578Z,22.39
2017-08-18T08:53:20.622Z,22.40
2017-08-18T08:55:15.066Z,22.28
2017-08-18T08:56:15.106Z,22.03
2017-08-18T08:58:09.603Z,22.22
2017-08-18T08:59:09.643Z,22.24
2017-08-18T09:01:04.179Z,22.39
2017-08-18T09:02:04.139Z,22.39
2017-08-18T09:03:58.595Z,22.31
2017-08-18T09:04:58.644Z,22.30
2017-08-18T09:06:53.124Z,22.27
2017-08-18T09:07:53.139Z,22.51
2017-08-18T09:09:47.611Z,22.65
2017-08-18T09:10:47.650Z,22.70
2017-08-18T09:12:42.147Z,22.79
2017-08-18T09:13:51.831Z,22.92
2017-08-18T09:15:36.612Z,23.15
2017-08-18T09:16:36.659Z,23.13
2017-08-18T09:18:31.172Z,23.19
2017-08-18T09:19:31.179Z,23.25
2017-08-18T09:21:25.644Z,23.28
2017-08-18T09:22:25.692Z,23.05
2017-08-18T09:24:19.172Z,23.05
2017-08-18T09:25:19.204Z,23.15
2017-08-18T09:27:12.661Z,23.04
2017-08-18T09:28:12.700Z,22.80
2017-08-18T09:30:06.188Z,23.20
2017-08-18T09:31:06.204Z,23.38
2017-08-18T09:33:00.675Z,23.51
2017-08-18T09:34:00.707Z,23.48
2017-08-18T09:35:55.236Z,23.16
2017-08-18T09:36:55.212Z,23.35
2017-08-18T09:38:49.699Z,23.53
2017-08-18T09:39:49.715Z,23.63
2017-08-18T09:41:43.176Z,23.73
2017-08-18T09:42:43.220Z,23.83
2017-08-18T09:44:37.716Z,23.87
2017-08-18T09:45:37.740Z,23.93
2017-08-18T09:47:32.196Z,24.03
2017-08-18T09:48:32.236Z,23.88
2017-08-18T09:50:26.740Z,23.65
2017-08-18T09:51:26.757Z,23.69
2017-08-18T09:53:21.212Z,23.65
2017-08-18T09:54:21.244Z,23.79
2017-08-18T09:56:15.733Z,23.53
2017-08-18T09:57:15.764Z,23.25
2017-08-18T09:59:10.252Z,23.35
2017-08-18T10:00:10.261Z,23.20
2017-08-18T10:02:04.741Z,23.00
2017-08-18T10:03:04.780Z,23.10
2017-08-18T10:04:59.277Z,23.05
2017-08-18T10:05:59.277Z,23.01
2017-08-18T10:07:53.749Z,22.75
2017-08-18T10:08:53.789Z,22.80
2017-08-18T10:10:48.325Z,22.70
2017-08-18T10:11:48.293Z,22.72
2017-08-18T10:13:42.757Z,22.73
2017-08-18T10:14:42.797Z,22.65
2017-08-18T10:16:37.277Z,22.49
2017-08-18T10:17:37.309Z,22.37
2017-08-18T10:19:30.797Z,22.49
2017-08-18T10:20:30.846Z,22.55
2017-08-18T10:22:25.597Z,22.58
2017-08-18T10:23:26.350Z,22.31
2017-08-18T10:25:19.794Z,22.39
2017-08-18T10:26:19.833Z,22.40
2017-08-18T10:28:14.318Z,22.47
2017-08-18T10:29:14.366Z,22.43
2017-08-18T10:31:07.798Z,22.67
2017-08-18T10:32:07.854Z,22.55
2017-08-18T10:34:02.335Z,22.76
2017-08-18T10:35:02.358Z,22.64
2017-08-18T10:36:56.814Z,22.54
2017-08-18T10:37:56.838Z,22.60
2017-08-18T10:39:50.335Z,22.76
2017-08-18T10:40:50.374Z,22.79
2017-08-18T10:42:44.910Z,22.75
2017-08-18T10:43:44.870Z,22.76
2017-08-18T10:45:39.343Z,22.80
2017-08-18T10:46:39.376Z,22.97
2017-08-18T10:48:33.943Z,22.92
2017-08-18T10:49:33.937Z,22.94
2017-08-18T10:51:28.351Z,22.92
2017-08-18T10:52:28.399Z,22.98
2017-08-18T10:54:21.919Z,22.82
2017-08-18T10:55:21.919Z,23.04
2017-08-18T10:57:15.415Z,23.05
2017-08-18T10:58:15.423Z,23.05
2017-08-18T11:00:09.944Z,23.12
2017-08-18T11:01:09.959Z,23.16
2017-08-18T11:03:04.408Z,23.23
2017-08-18T11:04:04.519Z,23.10
2017-08-18T11:05:59.056Z,23.16
2017-08-18T11:06:58.968Z,23.16
2017-08-18T11:08:53.424Z,23.43
2017-08-18T11:09:53.464Z,23.57
2017-08-18T11:11:47.968Z,23.54
2017-08-18T11:12:47.992Z,23.87
2017-08-18T11:14:42.448Z,24.18
2017-08-18T11:15:42.496Z,24.27
2017-08-18T11:17:36.974Z,24.30
2017-08-18T11:18:37.032Z,24.31
2017-08-18T11:20:31.496Z,24.34
2017-08-18T11:21:31.576Z,24.30
2017-08-18T11:23:25.985Z,23.78
2017-08-18T11:24:26.040Z,23.83
2017-08-18T11:26:20.521Z,23.66
2017-08-18T11:27:20.545Z,23.65
2017-08-18T11:29:15.073Z,23.69
2017-08-18T11:30:15.089Z,23.70
2017-08-18T11:32:09.633Z,23.84
2017-08-18T11:33:09.593Z,23.75
2017-08-18T11:35:04.082Z,23.75
2017-08-18T11:36:04.089Z,23.51
2017-08-18T11:37:58.537Z,23.39
2017-08-18T11:38:58.577Z,23.42
2017-08-18T11:40:52.089Z,23.20
2017-08-18T11:41:52.113Z,23.27
2017-08-18T11:43:46.569Z,23.20
2017-08-18T11:44:46.604Z,23.13
2017-08-18T11:46:41.346Z,23.28
2017-08-18T11:47:41.163Z,23.39
2017-08-18T11:49:35.586Z,23.50
2017-08-18T11:50:35.617Z,23.43
2017-08-18T11:52:30.115Z,23.23
2017-08-18T11:53:30.125Z,23.20
2017-08-18T11:55:24.586Z,23.09
2017-08-18T11:56:24.634Z,22.97
2017-08-18T11:58:19.122Z,23.04
2017-08-18T11:59:19.154Z,23.04
2017-08-18T12:01:13.595Z,23.23
2017-08-18T12:02:13.658Z,23.36
2017-08-18T12:04:08.138Z,23.27
2017-08-18T12:05:08.186Z,23.04
2017-08-18T12:07:02.603Z,23.16
2017-08-18T12:08:02.659Z,23.32
2017-08-18T12:09:57.179Z,23.38
2017-08-18T12:10:57.146Z,23.48
2017-08-18T12:12:51.618Z,23.50
2017-08-18T12:13:51.651Z,23.87
2017-08-18T12:15:46.155Z,24.21
2017-08-18T12:16:46.211Z,24.28
2017-08-18T12:18:40.626Z,24.02
2017-08-18T12:19:40.675Z,24.09
2017-08-18T12:21:35.192Z,24.12
2017-08-18T12:22:35.178Z,24.20
2017-08-18T12:24:29.667Z,24.27
2017-08-18T12:25:29.683Z,24.28
2017-08-18T12:27:24.203Z,24.21
2017-08-18T12:28:24.219Z,24.28
2017-08-18T12:30:18.732Z,24.28
2017-08-18T12:31:18.715Z,24.46
2017-08-18T12:33:13.164Z,24.24
2017-08-18T12:34:13.219Z,24.21
2017-08-18T12:36:07.707Z,23.76
2017-08-18T12:37:07.719Z,23.72
2017-08-18T12:39:02.240Z,23.55
2017-08-18T12:40:02.245Z,23.70
2017-08-18T12:41:56.748Z,23.88
2017-08-18T12:42:56.757Z,23.88
2017-08-18T12:44:51.245Z,23.93
2017-08-18T12:45:51.236Z,23.78
2017-08-18T12:47:44.708Z,23.69
2017-08-18T12:48:44.772Z,23.72
2017-08-18T12:50:39.276Z,23.35
2017-08-18T12:51:39.284Z,23.48
2017-08-18T12:53:33.797Z,23.50
2017-08-18T12:54:33.797Z,23.65
2017-08-18T12:56:27.373Z,23.66
2017-08-18T12:57:27.294Z,23.98
2017-08-18T12:59:21.788Z,23.85
2017-08-18T13:00:21.789Z,23.91
2017-08-18T13:02:16.477Z,23.90
2017-08-18T13:03:16.405Z,23.95
2017-08-18T13:05:10.805Z,24.06
2017-08-18T13:06:10.813Z,24.06
2017-08-18T13:08:05.333Z,24.16
2017-08-18T13:09:05.341Z,24.25
2017-08-18T13:10:59.837Z,24.18
2017-08-18T13:11:59.893Z,24.28
2017-08-18T13:13:54.309Z,24.55
2017-08-18T13:14:54.358Z,24.45
2017-08-18T13:16:48.997Z,24.42
2017-08-18T13:17:48.886Z,24.64
2017-08-18T13:19:43.460Z,24.42
2017-08-18T13:20:43.406Z,24.60
2017-08-18T13:22:37.870Z,24.55
2017-08-18T13:23:37.885Z,24.55
2017-08-18T13:25:32.349Z,24.49
2017-08-18T13:26:32.398Z,24.24
2017-08-18T13:28:26.879Z,24.39
2017-08-18T13:29:26.902Z,24.37
2017-08-18T13:31:21.366Z,24.43
2017-08-18T13:32:21.415Z,24.40
2017-08-18T13:34:16.087Z,24.31
2017-08-18T13:35:15.934Z,24.32
2017-08-18T13:37:10.415Z,24.39
2017-08-18T13:38:10.478Z,24.46
2017-08-18T13:40:04.934Z,24.50
2017-08-18T13:41:04.958Z,24.43
2017-08-18T13:42:58.431Z,24.34
2017-08-18T13:43:58.492Z,24.32
2017-08-18T13:45:54.510Z,24.16
2017-08-18T13:46:54.481Z,24.06
2017-08-18T13:48:49.063Z,23.91
2017-08-18T13:49:48.998Z,23.75
2017-08-18T13:51:43.506Z,23.54
2017-08-18T13:52:43.511Z,23.36
2017-08-18T13:54:37.983Z,23.38
2017-08-18T13:55:38.031Z,23.39
2017-08-18T13:57:32.511Z,23.15
2017-08-18T13:58:32.519Z,23.15
2017-08-18T14:00:27.007Z,23.22
2017-08-18T14:01:27.015Z,23.12
2017-08-18T14:03:21.503Z,23.05
2017-08-18T14:04:21.599Z,23.16
2017-08-18T14:06:15.984Z,23.05
2017-08-18T14:07:16.039Z,23.05
2017-08-18T14:09:10.528Z,22.91
2017-08-18T14:10:10.535Z,22.85
2017-08-18T14:12:04.992Z,22.82
2017-08-18T14:13:05.048Z,22.68
2017-08-18T14:14:58.527Z,22.73
2017-08-18T14:15:58.576Z,22.70
2017-08-18T14:17:52.056Z,22.27
2017-08-18T14:18:52.111Z,21.92
2017-08-18T14:20:46.584Z,21.14
2017-08-18T14:21:46.600Z,21.19
2017-08-18T14:23:41.059Z,21.16
2017-08-18T14:24:41.104Z,21.29
2017-08-18T14:26:35.632Z,21.19
2017-08-18T14:27:35.728Z,20.97
2017-08-18T14:29:30.176Z,20.88
2017-08-18T14:30:30.120Z,20.91
2017-08-18T14:32:24.664Z,20.95
2017-08-18T14:33:24.641Z,21.03
2017-08-18T14:35:19.157Z,21.07
2017-08-18T14:36:19.152Z,20.95
2017-08-18T14:38:13.657Z,20.94
2017-08-18T14:39:13.648Z,20.92
2017-08-18T14:41:08.136Z,20.79
2017-08-18T14:42:08.164Z,20.62
2017-08-18T14:44:02.672Z,20.41
2017-08-18T14:45:02.745Z,20.24
2017-08-18T14:46:57.097Z,20.29
2017-08-18T14:47:57.192Z,20.26
2017-08-18T14:49:50.625Z,20.28
2017-08-18T14:50:50.640Z,20.31
2017-08-18T14:52:45.113Z,20.23
2017-08-18T14:53:45.249Z,20.13
2017-08-18T14:55:39.641Z,20.26
2017-08-18T14:56:39.633Z,20.23
2017-08-18T14:58:34.153Z,20.29
2017-08-18T14:59:33.145Z,20.16
2017-08-18T15:01:27.654Z,20.14
2017-08-18T15:02:27.668Z,20.06
2017-08-18T15:04:22.108Z,20.17
2017-08-18T15:05:22.149Z,20.28
2017-08-18T15:07:16.644Z,20.24
2017-08-18T15:08:16.652Z,20.36
2017-08-18T15:10:11.117Z,20.31
2017-08-18T15:11:11.157Z,20.18
2017-08-18T15:13:05.669Z,20.24
2017-08-18T15:14:05.709Z,20.17
2017-08-18T15:16:00.117Z,20.17
2017-08-18T15:17:00.165Z,20.16
2017-08-18T15:18:54.653Z,20.18
2017-08-18T15:19:54.901Z,20.26
2017-08-18T15:21:49.163Z,20.23
2017-08-18T15:22:49.148Z,20.14
2017-08-18T15:24:43.813Z,20.06
2017-08-18T15:25:43.813Z,20.03
2017-08-18T15:27:39.917Z,20.08
2017-08-18T15:28:40.517Z,20.01
2017-08-18T15:30:34.214Z,20.05
2017-08-18T15:31:34.334Z,20.05
2017-08-18T15:33:28.766Z,20.13
2017-08-18T15:34:28.830Z,20.14
2017-08-18T15:36:23.254Z,20.16
2017-08-18T15:37:23.254Z,20.18
2017-08-18T15:39:18.766Z,20.13
2017-08-18T15:40:18.749Z,20.17
2017-08-18T15:42:13.222Z,20.24
2017-08-18T15:43:13.267Z,20.31
2017-08-18T15:45:07.719Z,20.36
2017-08-18T15:46:07.772Z,20.42
2017-08-18T15:48:02.206Z,20.38
2017-08-18T15:49:02.246Z,20.48
2017-08-18T15:50:56.741Z,20.39
2017-08-18T15:51:56.767Z,20.42
2017-08-18T15:53:51.248Z,20.35
2017-08-18T15:54:51.246Z,20.43
2017-08-18T15:56:45.702Z,20.38
2017-08-18T15:57:45.758Z,20.29
2017-08-18T15:59:39.230Z,20.31
2017-08-18T16:00:39.231Z,20.28
2017-08-18T16:02:32.711Z,20.29
2017-08-18T16:03:32.743Z,20.29
2017-08-18T16:05:27.239Z,20.35
2017-08-18T16:06:27.295Z,20.42
2017-08-18T16:08:21.703Z,20.51
2017-08-18T16:09:21.743Z,20.59
2017-08-18T16:11:16.103Z,20.54
2017-08-18T16:12:16.111Z,20.66
2017-08-18T16:14:10.575Z,20.72
2017-08-18T16:15:10.632Z,20.70
2017-08-18T16:17:05.112Z,20.85
2017-08-18T16:18:05.120Z,20.87
2017-08-18T16:19:59.616Z,20.74
2017-08-18T16:20:59.685Z,20.76
2017-08-18T16:22:54.079Z,20.87
2017-08-18T16:23:54.128Z,20.88
2017-08-18T16:25:47.680Z,20.98
2017-08-18T16:26:47.624Z,20.89
2017-08-18T16:28:42.089Z,20.80
2017-08-18T16:29:42.120Z,20.91
2017-08-18T16:31:36.592Z,20.87
2017-08-18T16:32:36.608Z,20.99
2017-08-18T16:34:31.072Z,20.92
2017-08-18T16:35:31.128Z,20.95
2017-08-18T16:37:25.600Z,21.01
2017-08-18T16:38:25.616Z,20.95
2017-08-18T16:40:20.112Z,21.04
2017-08-18T16:41:20.129Z,21.06
2017-08-18T16:43:14.593Z,20.89
2017-08-18T16:44:14.638Z,20.95
2017-08-18T16:46:08.105Z,21.03
2017-08-18T16:47:08.137Z,20.97
2017-08-18T16:49:02.625Z,20.99
2017-08-18T16:50:02.714Z,21.01
2017-08-18T16:51:56.865Z,21.10
2017-08-18T16:52:56.873Z,20.97
2017-08-18T16:54:51.337Z,21.17
2017-08-18T16:55:51.385Z,21.04
2017-08-18T16:57:45.873Z,21.14
2017-08-18T16:58:45.922Z,20.98
2017-08-18T17:00:40.346Z,21.04
2017-08-18T17:01:40.385Z,21.13
2017-08-18T17:03:34.913Z,21.14
2017-08-18T17:04:34.897Z,21.10
2017-08-18T17:06:29.434Z,21.03
2017-08-18T17:07:29.401Z,21.06
2017-08-18T17:09:23.866Z,21.19
2017-08-18T17:10:23.898Z,21.16
2017-08-18T17:12:17.394Z,21.17
2017-08-18T17:13:17.402Z,21.24
2017-08-18T17:15:11.874Z,21.22
2017-08-18T17:16:11.906Z,21.10
2017-08-18T17:18:06.426Z,21.01
2017-08-18T17:19:06.418Z,21.03
2017-08-18T17:20:59.866Z,21.04
2017-08-18T17:21:59.915Z,20.94
2017-08-18T17:23:54.411Z,20.57
2017-08-18T17:24:54.458Z,20.52
2017-08-18T17:26:48.876Z,20.70
2017-08-18T17:27:48.941Z,20.70
2017-08-18T17:29:43.416Z,20.69
2017-08-18T17:30:43.425Z,20.69
2017-08-18T17:32:37.881Z,20.61
2017-08-18T17:33:37.920Z,20.61
2017-08-18T17:35:31.425Z,20.72
2017-08-18T17:36:31.425Z,20.72
2017-08-18T17:38:25.929Z,20.73
2017-08-18T17:39:25.929Z,20.69
2017-08-18T17:41:20.385Z,20.72
2017-08-18T17:42:20.425Z,20.66
2017-08-18T17:44:14.929Z,20.38
2017-08-18T17:45:14.929Z,20.48
2017-08-18T17:47:08.401Z,20.51
2017-08-18T17:48:08.433Z,20.54
2017-08-18T17:50:02.953Z,20.31
2017-08-18T17:51:02.929Z,20.32
2017-08-18T17:52:57.394Z,20.39
2017-08-18T17:53:57.442Z,20.38
2017-08-18T17:55:51.980Z,20.26
2017-08-18T17:56:51.945Z,20.23
2017-08-18T17:58:46.401Z,20.21
2017-08-18T17:59:46.450Z,20.24
2017-08-18T18:01:40.946Z,20.24
2017-08-18T18:02:40.938Z,20.10
2017-08-18T18:04:35.530Z,20.16
2017-08-18T18:05:35.530Z,20.17
2017-08-18T18:07:29.018Z,20.18
2017-08-18T18:08:29.026Z,20.14
2017-08-18T18:10:22.474Z,20.14
2017-08-18T18:11:22.522Z,19.99
2017-08-18T18:13:16.019Z,19.84
2017-08-18T18:14:16.034Z,19.68
2017-08-18T18:16:10.474Z,19.73
2017-08-18T18:17:10.536Z,19.66
2017-08-18T18:19:04.994Z,19.65
2017-08-18T18:20:05.075Z,19.66
2017-08-18T18:21:59.491Z,19.51
2017-08-18T18:22:59.525Z,19.56
2017-08-18T18:24:53.995Z,19.56
2017-08-18T18:25:54.010Z,19.48
2017-08-18T18:27:48.475Z,19.51
2017-08-18T18:28:48.539Z,19.44
2017-08-18T18:30:43.046Z,19.44
2017-08-18T18:31:43.003Z,19.48
2017-08-18T18:33:37.467Z,19.46
2017-08-18T18:34:37.507Z,19.43
2017-08-18T18:36:32.043Z,19.39
2017-08-18T18:37:32.035Z,19.41
2017-08-18T18:39:26.484Z,19.46
2017-08-18T18:40:26.525Z,19.47
2017-08-18T18:42:20.003Z,19.43